Time;durP1;ratioP1;P1;durP2;ratioP2;P2;SDS_P1;SDS_P2;PMS_P1;PMS_P2;Temp;Humidity;BMP_temperature;BMP_pressure;BME280_temperature;BME280_humidity;BME280_pressure;Samples;Min_cycle;Max_cycle;Signal;HPM_P1;HPM_P2
2022/04/26 03:37:19;;;;;;;;;;;;;;;8.11;64.55;94893.03;4975741;28;942;-49
2022/04/26 03:39:45;;;;;;;;;;;;;;;8.24;64.47;94882.84;4976062;28;1207;-49
2022/04/26 03:42:12;;;;;;;;;;;;;;;8.32;64.26;94898.88;4976204;28;1000;-49
2022/04/26 03:44:38;;;;;;;;;;;;;;;8.29;64.74;94901.00;4975630;28;1049;-49
2022/04/26 03:47:06;;;;;;;;;;;;;;;8.42;64.44;94898.81;4976017;28;1911;-49
2022/04/26 03:49:32;;;;;;;;;;;;;;;8.58;63.87;94898.13;4975584;28;973;-49
2022/04/26 03:51:59;;;;;;;;;;;;;;;8.58;63.57;94898.97;4975913;28;972;-49
2022/04/26 03:54:25;;;;;;;;;;;;;;;8.52;63.94;94907.59;4975782;28;1052;-49
2022/04/26 03:56:51;;;;;;;;;;;;;;;8.77;63.70;94918.44;4975992;28;988;-49
2022/04/26 03:59:19;;;;;;;;;;;;;;;8.95;63.65;94926.38;4975503;28;1055;-49
2022/04/26 04:01:46;;;;;;;;;;;;;;;9.02;63.22;94918.59;4974467;28;1030;-49
2022/04/26 04:04:12;;;;;;;;;;;;;;;8.78;63.38;94928.94;4975337;28;1050;-49
2022/04/26 04:06:38;;;;;;;;;;;;;;;8.81;63.81;94929.63;4975267;28;1977;-49
2022/04/26 04:09:04;;;;;;;;;;;;;;;8.89;63.33;94935.00;4975628;28;1035;-49
2022/04/26 04:11:30;;;;;;;;;;;;;;;8.94;63.24;94940.72;4975533;28;951;-49
2022/04/26 04:13:57;;;;;;;;;;;;;;;9.28;62.96;94937.25;4975358;28;1032;-49
2022/04/26 04:16:23;;;;;;;;;;;;;;;9.67;61.99;94936.75;4975630;28;1020;-49
2022/04/26 04:21:34;;;;;;;;;;;;;;;9.52;62.27;94944.53;4975389;28;1000;-49
2022/04/26 04:24:00;;;;;;;;;;;;;;;9.73;62.70;94949.47;4975181;28;1012;-49
2022/04/26 04:26:26;;;;;;;;;;;;;;;10.08;61.64;94943.06;4946727;28;589343;-50
2022/04/26 04:28:52;;;;;;;;;;;;;;;10.38;60.96;94948.00;4967651;28;1081;-49
2022/04/26 04:31:18;;;;;;;;;;;;;;;10.94;59.67;94946.34;4956856;28;997;-49
2022/04/26 04:33:45;;;;;;;;;;;;;;;12.25;55.90;94948.63;4956981;29;1009;-49
2022/04/26 04:36:11;;;;;;;;;;;;;;;13.74;51.78;94949.09;4956767;28;959;-50
2022/04/26 04:38:37;;;;;;;;;;;;;;;14.62;49.53;94958.03;4956588;28;1017;-50
2022/04/26 04:41:04;;;;;;;;;;;;;;;15.25;47.40;94954.69;4956684;29;1002;-50
2022/04/26 04:43:31;;;;;;;;;;;;;;;15.58;47.12;94956.81;4956501;28;1213;-50
2022/04/26 04:45:57;;;;;;;;;;;;;;;15.47;46.85;94954.66;4956329;28;1103;-50
2022/04/26 04:48:23;;;;;;;;;;;;;;;15.13;47.91;94959.78;4955480;28;1986;-50
2022/04/26 04:50:49;;;;;;;;;;;;;;;14.55;49.08;94965.19;4956342;29;967;-49
2022/04/26 04:53:17;;;;;;;;;;;;;;;14.20;50.53;94954.22;4956545;28;1000;-49
2022/04/26 04:55:43;;;;;;;;;;;;;;;14.41;49.22;94960.69;4956131;28;1026;-49
2022/04/26 04:58:10;;;;;;;;;;;;;;;14.70;49.61;94961.63;4955208;28;1043;-49
2022/04/26 05:00:36;;;;;;;;;;;;;;;14.74;48.82;94966.47;4955810;29;1026;-50
2022/04/26 05:03:02;;;;;;;;;;;;;;;15.36;47.65;94956.84;4956484;28;1168;-50
2022/04/26 05:05:29;;;;;;;;;;;;;;;16.27;45.10;94955.16;4956197;28;1113;-50
2022/04/26 05:07:56;;;;;;;;;;;;;;;16.77;44.62;94959.25;4956119;28;1926;-50
2022/04/26 05:10:22;;;;;;;;;;;;;;;16.98;44.07;94965.56;4955817;28;1030;-50
2022/04/26 05:12:48;;;;;;;;;;;;;;;17.29;43.34;94967.66;4956085;29;946;-50
2022/04/26 05:15:14;;;;;;;;;;;;;;;18.05;41.49;94965.56;4955728;29;1032;-50
2022/04/26 05:17:41;;;;;;;;;;;;;;;18.77;40.18;94979.03;4954400;29;2597;-50
2022/04/26 05:20:08;;;;;;;;;;;;;;;19.19;39.11;94982.97;4956006;28;939;-50
2022/04/26 05:24:53;;;;;;;;;;;;;;;18.84;39.65;94985.28;4955880;28;1022;-50
2022/04/26 05:25:20;;;;;;;;;;;;;;;18.72;39.26;94975.09;4959431;28;1160;-50
2022/04/26 05:27:46;;;;;;;;;;;;;;;18.62;40.02;94982.00;4974860;28;1905;-50
2022/04/26 05:30:13;;;;;;;;;;;;;;;18.70;38.76;94976.34;4973691;28;1073;-50
2022/04/26 05:32:39;;;;;;;;;;;;;;;18.67;39.71;94971.38;4973964;28;960;-50
2022/04/26 05:35:06;;;;;;;;;;;;;;;18.25;39.54;94979.00;4973917;28;997;-49
2022/04/26 05:37:32;;;;;;;;;;;;;;;17.63;41.07;94973.09;4975029;28;933;-49
2022/04/26 05:40:02;;;;;;;;;;;;;;;16.93;41.70;94971.56;4974822;28;1875;-51
2022/04/26 05:42:28;;;;;;;;;;;;;;;16.58;44.71;94968.97;4974675;28;1056;-50
2022/04/26 05:44:55;;;;;;;;;;;;;;;16.45;43.92;94979.72;4974863;28;1189;-50
2022/04/26 05:47:21;;;;;;;;;;;;;;;16.39;44.58;94975.16;4974235;28;1915;-50
2022/04/26 05:49:48;;;;;;;;;;;;;;;16.44;43.77;94975.34;4973886;28;1052;-49
2022/04/26 05:52:14;;;;;;;;;;;;;;;16.39;44.53;94973.28;4974506;28;1014;-49
2022/04/26 05:54:40;;;;;;;;;;;;;;;16.45;45.16;94977.03;4974607;28;1119;-49
2022/04/26 05:57:06;;;;;;;;;;;;;;;16.41;44.71;94973.06;4974403;28;1029;-49
2022/04/26 05:59:34;;;;;;;;;;;;;;;16.66;44.41;94977.94;4973264;28;931;-49
2022/04/26 06:02:00;;;;;;;;;;;;;;;16.88;44.74;94973.22;4974653;28;963;-49
2022/04/26 06:04:26;;;;;;;;;;;;;;;17.11;43.10;94967.44;4974818;28;1034;-49
2022/04/26 06:06:52;;;;;;;;;;;;;;;17.31;42.85;94972.88;4974259;28;1914;-49
2022/04/26 06:09:19;;;;;;;;;;;;;;;17.39;42.17;94966.44;4974520;28;1054;-49
2022/04/26 06:11:46;;;;;;;;;;;;;;;17.43;42.17;94970.38;4974254;28;947;-50
2022/04/26 06:14:12;;;;;;;;;;;;;;;17.65;42.12;94966.41;4974523;28;1980;-49
2022/04/26 06:16:38;;;;;;;;;;;;;;;17.85;42.03;94960.16;4974129;28;1300;-49
2022/04/26 06:19:04;;;;;;;;;;;;;;;18.12;41.68;94961.78;4974525;28;1053;-50
2022/04/26 06:21:30;;;;;;;;;;;;;;;18.32;41.54;94964.41;4973937;28;1037;-50
2022/04/26 06:23:57;;;;;;;;;;;;;;;18.59;41.34;94963.47;4974391;28;979;-49
2022/04/26 06:26:23;;;;;;;;;;;;;;;18.94;41.28;94966.66;4961908;28;1155;-50
2022/04/26 06:28:49;;;;;;;;;;;;;;;19.23;40.71;94958.97;4955283;28;1912;-50
2022/04/26 06:31:15;;;;;;;;;;;;;;;19.61;40.38;94955.31;4954824;29;1010;-50
2022/04/26 06:33:41;;;;;;;;;;;;;;;19.96;38.68;94955.66;4955456;29;969;-49
2022/04/26 06:36:07;;;;;;;;;;;;;;;20.16;39.34;94955.44;4953509;29;2712;-49
2022/04/26 06:38:33;;;;;;;;;;;;;;;20.41;39.65;94949.09;4954866;28;989;-50
2022/04/26 06:41:00;;;;;;;;;;;;;;;20.65;39.49;94950.09;4954778;28;1116;-49
2022/04/26 06:43:27;;;;;;;;;;;;;;;21.05;39.13;94949.53;4955086;28;972;-49
2022/04/26 06:45:53;;;;;;;;;;;;;;;21.54;37.74;94950.28;4954892;28;1057;-49
2022/04/26 06:48:20;;;;;;;;;;;;;;;21.60;36.43;94946.59;4954568;28;1994;-50
2022/04/26 06:50:47;;;;;;;;;;;;;;;21.88;37.90;94950.53;4954754;29;1049;-49
2022/04/26 06:53:13;;;;;;;;;;;;;;;22.18;35.58;94942.22;4954942;28;977;-49
2022/04/26 06:55:39;;;;;;;;;;;;;;;22.33;35.49;94943.66;4954683;29;1026;-49
2022/04/26 06:58:06;;;;;;;;;;;;;;;22.64;35.96;94944.31;4953744;29;1044;-50
2022/04/26 07:00:33;;;;;;;;;;;;;;;22.75;35.42;94949.72;4954871;28;966;-49
2022/04/26 07:02:59;;;;;;;;;;;;;;;22.98;34.83;94939.78;4953343;29;1189;-50
2022/04/26 07:05:25;;;;;;;;;;;;;;;23.04;35.13;94949.75;4954625;28;1045;-50
2022/04/26 07:07:52;;;;;;;;;;;;;;;23.27;34.57;94950.69;4954588;28;2023;-50
2022/04/26 07:10:18;;;;;;;;;;;;;;;23.13;35.46;94953.75;4954831;28;986;-49
2022/04/26 07:12:44;;;;;;;;;;;;;;;23.18;34.71;94945.66;4958269;28;948;-50
2022/04/26 07:15:11;;;;;;;;;;;;;;;23.23;35.37;94946.81;4958427;29;955;-50
2022/04/26 07:17:38;;;;;;;;;;;;;;;23.23;34.25;94944.09;4957726;28;1080;-49
2022/04/26 07:20:05;;;;;;;;;;;;;;;23.29;34.69;94948.56;4958141;28;936;-50
2022/04/26 07:22:32;;;;;;;;;;;;;;;23.19;34.95;94950.03;4958306;28;972;-50
2022/04/26 07:24:58;;;;;;;;;;;;;;;23.38;34.29;94949.81;4958461;28;1231;-50
2022/04/26 07:27:24;;;;;;;;;;;;;;;23.61;34.83;94948.00;4976997;28;1947;-50
2022/04/26 07:29:50;;;;;;;;;;;;;;;23.64;34.96;94944.78;4977422;28;971;-50
2022/04/26 07:32:17;;;;;;;;;;;;;;;23.67;35.08;94947.00;4977013;28;1092;-50
2022/04/26 07:34:45;;;;;;;;;;;;;;;23.81;34.35;94936.63;4977045;28;1052;-50
2022/04/26 07:37:11;;;;;;;;;;;;;;;23.96;35.83;94945.88;4977154;28;967;-50
2022/04/26 07:39:37;;;;;;;;;;;;;;;24.17;34.43;94943.44;4977168;28;1004;-50
2022/04/26 07:42:04;;;;;;;;;;;;;;;24.12;34.38;94941.47;4976956;28;1072;-50
2022/04/26 07:44:31;;;;;;;;;;;;;;;23.90;33.83;94940.59;4977058;28;1060;-50
2022/04/26 07:46:57;;;;;;;;;;;;;;;23.58;34.38;94935.66;4976981;28;1914;-50
2022/04/26 07:49:24;;;;;;;;;;;;;;;23.76;34.95;94935.44;4976764;28;953;-49
2022/04/26 07:51:51;;;;;;;;;;;;;;;23.85;33.35;94935.06;4977023;28;975;-50
2022/04/26 07:54:17;;;;;;;;;;;;;;;23.89;35.45;94939.75;4976505;28;1017;-50
2022/04/26 07:56:44;;;;;;;;;;;;;;;24.03;35.67;94945.69;4977000;28;1117;-48
2022/04/26 07:59:11;;;;;;;;;;;;;;;24.10;34.61;94932.69;4976501;28;1021;-49
2022/04/26 08:01:37;;;;;;;;;;;;;;;24.23;33.56;94934.25;4976550;28;1060;-49
2022/04/26 08:04:04;;;;;;;;;;;;;;;24.24;33.14;94935.06;4976338;28;1080;-49
2022/04/26 08:06:30;;;;;;;;;;;;;;;24.17;33.34;94932.53;4976462;28;1037;-49
2022/04/26 08:08:58;;;;;;;;;;;;;;;24.29;34.73;94929.69;4975469;28;1009;-49
2022/04/26 08:11:28;;;;;;;;;;;;;;;24.43;34.15;94930.94;4976616;28;975;-49
2022/04/26 08:13:54;;;;;;;;;;;;;;;24.45;33.37;94928.78;4976623;28;967;-49
2022/04/26 08:16:20;;;;;;;;;;;;;;;24.52;33.42;94931.38;4976435;28;1035;-49
2022/04/26 08:18:46;;;;;;;;;;;;;;;24.64;34.17;94928.50;4975883;28;1046;-50
2022/04/26 08:21:16;;;;;;;;;;;;;;;24.84;31.89;94930.66;4976257;28;1007;-49
2022/04/26 08:29:15;;;;;;;;;;;;;;;25.10;31.63;94929.03;4957004;29;1013;-49
2022/04/26 08:31:41;;;;;;;;;;;;;;;24.85;32.69;94924.09;4956904;28;971;-49
2022/04/26 08:34:07;;;;;;;;;;;;;;;24.49;31.97;94919.03;4956538;28;1013;-49
2022/04/26 08:36:34;;;;;;;;;;;;;;;24.71;31.35;94929.16;4956591;29;1089;-50
2022/04/26 08:39:01;;;;;;;;;;;;;;;24.96;32.00;94925.88;4956799;28;993;-49
2022/04/26 08:41:27;;;;;;;;;;;;;;;25.02;32.81;94926.75;4956856;28;972;-49
2022/04/26 08:43:53;;;;;;;;;;;;;;;24.85;31.52;94916.75;4956390;28;1030;-49
2022/04/26 08:46:19;;;;;;;;;;;;;;;24.90;31.95;94913.22;4956622;29;1017;-49
2022/04/26 08:51:30;;;;;;;;;;;;;;;25.14;31.92;94922.78;4956621;29;975;-50
2022/04/26 08:53:57;;;;;;;;;;;;;;;25.42;32.40;94918.16;4956335;28;1029;-49
2022/04/26 08:56:24;;;;;;;;;;;;;;;25.72;31.32;94911.28;4956490;28;1046;-49
2022/04/26 08:58:51;;;;;;;;;;;;;;;25.93;31.53;94917.75;4956133;28;1049;-49
2022/04/26 09:01:18;;;;;;;;;;;;;;;25.77;31.58;94910.50;4956152;29;1152;-49
2022/04/26 09:03:58;;;;;;;;;;;;;;;25.82;30.37;94911.38;4956236;28;993;-49
2022/04/26 09:06:25;;;;;;;;;;;;;;;25.53;30.38;94908.09;4956114;28;1028;-49
2022/04/26 09:09:04;;;;;;;;;;;;;;;25.64;32.16;94911.75;4956116;28;1911;-49
2022/04/26 09:11:34;;;;;;;;;;;;;;;25.97;31.00;94913.41;4955993;28;1008;-49
2022/04/26 09:14:04;;;;;;;;;;;;;;;26.13;29.80;94903.38;4956208;28;1035;-49
2022/04/26 09:16:30;;;;;;;;;;;;;;;26.09;29.26;94899.53;4955968;28;1127;-49
2022/04/26 09:19:02;;;;;;;;;;;;;;;26.00;28.13;94901.09;4955694;28;1124;-49
2022/04/26 09:21:29;;;;;;;;;;;;;;;26.03;29.95;94900.59;4955967;28;1038;-49
2022/04/26 09:23:57;;;;;;;;;;;;;;;25.94;28.60;94891.22;4955571;28;1071;-49
2022/04/26 09:26:25;;;;;;;;;;;;;;;25.65;28.72;94889.63;4967459;28;1242;-49
2022/04/26 09:28:51;;;;;;;;;;;;;;;25.60;29.30;94892.31;4974855;28;1906;-49
2022/04/26 09:31:24;;;;;;;;;;;;;;;25.57;29.98;94892.00;4975290;28;1058;-49
2022/04/26 09:33:52;;;;;;;;;;;;;;;25.68;31.27;94889.06;4974453;28;1108;-49
2022/04/26 09:36:24;;;;;;;;;;;;;;;25.47;29.09;94885.34;4974834;28;1092;-49
2022/04/26 09:38:55;;;;;;;;;;;;;;;25.41;29.48;94891.06;4974859;28;1016;-49
2022/04/26 09:41:22;;;;;;;;;;;;;;;25.59;29.84;94881.59;4975109;28;1027;-49
2022/04/26 09:44:03;;;;;;;;;;;;;;;25.74;30.79;94878.16;4974755;28;1108;-51
2022/04/26 09:46:44;;;;;;;;;;;;;;;26.05;30.54;94877.31;4974987;28;992;-49
2022/04/26 09:49:11;;;;;;;;;;;;;;;25.83;30.28;94860.97;4974328;28;1027;-49
2022/04/26 09:51:37;;;;;;;;;;;;;;;26.08;29.88;94873.19;4974866;28;1074;-49
2022/04/26 09:54:04;;;;;;;;;;;;;;;26.11;30.10;94867.19;4974619;28;1196;-49
2022/04/26 09:56:30;;;;;;;;;;;;;;;26.04;29.71;94855.66;4974729;28;1038;-49
2022/04/26 09:58:58;;;;;;;;;;;;;;;26.09;30.13;94863.91;4974662;28;1085;-49
2022/04/26 10:01:45;;;;;;;;;;;;;;;26.02;29.99;94864.13;4974394;28;1246;-50
2022/04/26 10:04:14;;;;;;;;;;;;;;;25.74;29.40;94859.81;4974759;28;941;-51
2022/04/26 10:06:41;;;;;;;;;;;;;;;25.86;30.50;94862.38;4974973;28;1907;-51
2022/04/26 10:09:08;;;;;;;;;;;;;;;25.89;30.08;94856.34;4974855;28;1019;-51
2022/04/26 10:11:35;;;;;;;;;;;;;;;25.84;29.59;94857.16;4973202;28;1279;-51
2022/04/26 10:14:03;;;;;;;;;;;;;;;25.63;28.48;94858.94;4974753;28;1079;-51
2022/04/26 10:16:30;;;;;;;;;;;;;;;25.47;29.59;94857.97;4974535;28;991;-51
2022/04/26 10:19:22;;;;;;;;;;;;;;;25.67;29.00;94849.09;4974099;28;1029;-51
2022/04/26 10:21:49;;;;;;;;;;;;;;;25.77;29.19;94847.53;4966200;28;1111;-52
2022/04/26 10:24:23;;;;;;;;;;;;;;;25.89;29.29;94851.69;4974532;28;1020;-51
2022/04/26 10:26:51;;;;;;;;;;;;;;;25.49;27.23;94853.06;4957418;28;1918;-52
2022/04/26 10:29:17;;;;;;;;;;;;;;;25.25;29.64;94838.94;4955150;28;1000;-52
2022/04/26 10:31:44;;;;;;;;;;;;;;;25.46;29.01;94839.94;4954892;28;1021;-51
2022/04/26 10:34:16;;;;;;;;;;;;;;;25.46;27.39;94831.72;4955109;28;1038;-50
2022/04/26 10:36:43;;;;;;;;;;;;;;;25.64;27.23;94824.97;4954867;28;1001;-52
2022/04/26 10:39:09;;;;;;;;;;;;;;;25.73;27.07;94824.50;4954943;28;1014;-52
2022/04/26 10:41:37;;;;;;;;;;;;;;;25.40;28.25;94823.72;4954644;28;1045;-53
2022/04/26 10:44:12;;;;;;;;;;;;;;;25.60;30.29;94825.78;4954941;28;1172;-53
2022/04/26 10:46:39;;;;;;;;;;;;;;;25.84;30.71;94826.22;4955682;28;1902;-53
2022/04/26 10:49:24;;;;;;;;;;;;;;;25.92;28.93;94820.25;4957280;29;1033;-52
2022/04/26 10:51:57;;;;;;;;;;;;;;;25.87;28.90;94821.00;4958381;28;939;-52
2022/04/26 10:54:42;;;;;;;;;;;;;;;25.89;28.10;94824.31;4958795;29;990;-52
2022/04/26 10:57:08;;;;;;;;;;;;;;;25.70;28.27;94812.97;4958510;28;1036;-52
2022/04/26 10:59:39;;;;;;;;;;;;;;;25.79;30.11;94813.31;4958584;28;1085;-52
2022/04/26 11:02:07;;;;;;;;;;;;;;;25.92;29.11;94801.09;4958289;28;1041;-52
2022/04/26 11:04:33;;;;;;;;;;;;;;;25.95;28.78;94800.53;4958397;28;1005;-52
2022/04/26 11:07:09;;;;;;;;;;;;;;;25.94;29.11;94807.13;4956953;28;1922;-52
2022/04/26 11:09:36;;;;;;;;;;;;;;;25.95;28.17;94810.69;4957154;29;1139;-52
2022/04/26 11:12:03;;;;;;;;;;;;;;;25.86;28.78;94808.44;4958120;28;1037;-52
2022/04/26 11:14:29;;;;;;;;;;;;;;;25.85;28.50;94800.47;4941465;29;1404;-52
2022/04/26 11:16:57;;;;;;;;;;;;;;;25.84;28.97;94798.84;4956923;28;1583;-52
2022/04/26 11:19:31;;;;;;;;;;;;;;;25.88;28.50;94797.22;4956626;28;2511;-50
2022/04/26 11:22:05;;;;;;;;;;;;;;;25.89;29.08;94790.63;4957978;28;1038;-50
2022/04/26 11:30:02;;;;;;;;;;;;;;;26.01;29.46;94784.97;4977578;28;1037;-51
2022/04/26 11:32:32;;;;;;;;;;;;;;;25.99;28.75;94779.78;4976882;28;1005;-51
2022/04/26 11:34:58;;;;;;;;;;;;;;;25.99;29.03;94770.72;4977484;28;1014;-51
2022/04/26 11:37:24;;;;;;;;;;;;;;;25.93;29.34;94769.84;4976961;28;1026;-51
2022/04/26 11:39:50;;;;;;;;;;;;;;;26.06;30.34;94763.06;4976995;28;1978;-51
2022/04/26 11:42:17;;;;;;;;;;;;;;;26.14;29.97;94773.50;4976770;28;1128;-51
2022/04/26 11:44:56;;;;;;;;;;;;;;;26.03;28.29;94761.72;4976077;28;1002;-51
2022/04/26 11:47:43;;;;;;;;;;;;;;;25.90;28.18;94768.47;4976630;28;1903;-51
2022/04/26 11:50:09;;;;;;;;;;;;;;;25.92;28.08;94762.75;4977008;28;956;-51
2022/04/26 11:52:35;;;;;;;;;;;;;;;25.67;26.47;94753.28;4976797;28;1058;-51
2022/04/26 11:55:01;;;;;;;;;;;;;;;25.59;27.65;94747.47;4976799;28;1085;-51
2022/04/26 11:57:28;;;;;;;;;;;;;;;25.80;29.42;94748.41;4976249;28;1025;-51
2022/04/26 11:59:54;;;;;;;;;;;;;;;25.85;28.18;94741.03;4976702;28;1033;-51
2022/04/26 12:02:20;;;;;;;;;;;;;;;25.78;27.71;94748.69;4976648;28;1012;-51
2022/04/26 12:04:48;;;;;;;;;;;;;;;25.50;28.14;94741.69;4976680;28;1071;-51
2022/04/26 12:07:15;;;;;;;;;;;;;;;25.16;28.97;94738.44;4976325;28;1906;-51
2022/04/26 12:09:44;;;;;;;;;;;;;;;25.14;28.96;94736.78;4976713;28;1101;-50
2022/04/26 12:12:13;;;;;;;;;;;;;;;25.29;28.47;94735.28;4976520;28;1034;-51
2022/04/26 12:14:41;;;;;;;;;;;;;;;25.30;29.06;94735.00;4976394;28;1960;-50
2022/04/26 12:17:22;;;;;;;;;;;;;;;25.34;28.88;94727.09;4976218;28;1008;-50
2022/04/26 12:19:51;;;;;;;;;;;;;;;25.44;29.32;94729.06;4976376;28;972;-51
2022/04/26 12:22:18;;;;;;;;;;;;;;;25.35;29.20;94725.19;4976283;28;999;-51
2022/04/26 12:24:45;;;;;;;;;;;;;;;25.38;29.53;94720.00;4976568;28;979;-49
2022/04/26 12:27:13;;;;;;;;;;;;;;;25.51;30.12;94713.22;4957536;28;1915;-50
2022/04/26 12:29:41;;;;;;;;;;;;;;;25.67;29.77;94714.16;4956795;28;1140;-49
2022/04/26 12:32:08;;;;;;;;;;;;;;;25.49;29.29;94716.22;4956747;28;1012;-49
2022/04/26 12:34:35;;;;;;;;;;;;;;;25.46;28.64;94716.78;4957008;28;990;-49
2022/04/26 12:37:09;;;;;;;;;;;;;;;25.29;28.32;94711.47;4956888;28;995;-49
2022/04/26 12:39:38;;;;;;;;;;;;;;;25.13;27.46;94709.69;4956954;28;944;-50
2022/04/26 12:42:04;;;;;;;;;;;;;;;25.20;29.56;94706.75;4956600;28;1045;-50
2022/04/26 12:44:31;;;;;;;;;;;;;;;25.32;29.46;94701.91;4956626;28;969;-50
2022/04/26 12:53:40;;;;;;;;;;;;;;;24.81;29.90;94694.13;4951729;28;1414;-50
2022/04/26 12:56:08;;;;;;;;;;;;;;;24.85;30.21;94694.44;4956226;28;1169;-50
2022/04/26 12:58:35;;;;;;;;;;;;;;;24.94;29.36;94692.88;4956116;28;997;-50
2022/04/26 13:01:02;;;;;;;;;;;;;;;24.85;30.31;94687.09;4956529;28;981;-51
2022/04/26 13:03:28;;;;;;;;;;;;;;;24.78;30.04;94688.41;4955963;28;942;-51
2022/04/26 13:06:05;;;;;;;;;;;;;;;24.74;29.42;94691.63;4956385;29;1029;-51
2022/04/26 13:08:31;;;;;;;;;;;;;;;24.82;30.60;94681.31;4955574;28;1911;-51
2022/04/26 13:10:57;;;;;;;;;;;;;;;25.08;29.94;94683.13;4956469;28;1038;-51
2022/04/26 13:13:23;;;;;;;;;;;;;;;25.21;29.85;94679.13;4956009;29;1030;-51
2022/04/26 13:15:49;;;;;;;;;;;;;;;25.10;28.99;94682.88;4956041;29;1046;-51
2022/04/26 13:18:15;;;;;;;;;;;;;;;25.10;29.83;94677.41;4955562;29;1014;-51
2022/04/26 13:20:43;;;;;;;;;;;;;;;25.23;30.25;94667.94;4955983;28;1100;-51
2022/04/26 13:23:09;;;;;;;;;;;;;;;25.44;29.84;94675.16;4955955;28;1019;-51
2022/04/26 13:25:36;;;;;;;;;;;;;;;25.58;28.92;94674.69;4961240;28;1160;-51
2022/04/26 13:28:05;;;;;;;;;;;;;;;25.61;29.74;94672.25;4974729;28;1914;-51
2022/04/26 13:30:31;;;;;;;;;;;;;;;25.45;27.83;94670.50;4974893;28;1041;-51
2022/04/26 13:32:57;;;;;;;;;;;;;;;25.39;27.42;94658.72;4974781;28;1021;-51
2022/04/26 13:35:25;;;;;;;;;;;;;;;25.48;26.08;94661.78;4975129;28;977;-50
2022/04/26 13:37:52;;;;;;;;;;;;;;;25.36;27.51;94659.25;4974989;28;964;-51
2022/04/26 13:40:19;;;;;;;;;;;;;;;25.36;27.84;94658.44;4974845;28;1056;-51
2022/04/26 13:42:45;;;;;;;;;;;;;;;25.37;27.01;94658.16;4974969;28;1035;-51
2022/04/26 13:45:11;;;;;;;;;;;;;;;25.29;27.63;94655.94;4975050;28;981;-51
2022/04/26 13:47:38;;;;;;;;;;;;;;;25.26;27.78;94651.00;4974224;28;1899;-51
2022/04/26 13:50:05;;;;;;;;;;;;;;;25.33;29.24;94651.59;4974823;28;1103;-52
2022/04/26 13:52:32;;;;;;;;;;;;;;;25.21;29.33;94657.25;4974675;28;1010;-54
2022/04/26 13:54:58;;;;;;;;;;;;;;;25.25;28.98;94650.19;4989644;28;1044;-51
2022/04/26 13:57:24;;;;;;;;;;;;;;;25.17;28.20;94658.84;4974427;28;1009;-51
2022/04/26 13:59:50;;;;;;;;;;;;;;;25.02;28.91;94659.56;4973309;28;1169;-51
2022/04/26 14:02:18;;;;;;;;;;;;;;;24.86;28.39;94652.34;4974673;28;939;-51
2022/04/26 14:04:47;;;;;;;;;;;;;;;24.73;28.71;94657.19;4974900;28;953;-51
2022/04/26 14:07:14;;;;;;;;;;;;;;;24.61;29.06;94653.00;4974323;28;1914;-50
2022/04/26 14:09:40;;;;;;;;;;;;;;;24.52;28.50;94653.47;4974702;28;1027;-50
2022/04/26 14:12:07;;;;;;;;;;;;;;;24.50;28.81;94660.25;4974780;28;1021;-50
2022/04/26 14:22:49;;;;;;;;;;;;;;;24.29;30.03;94667.44;4978317;28;969;-49
2022/04/26 14:25:15;;;;;;;;;;;;;;;24.30;30.31;94666.34;4974666;28;1167;-49
2022/04/26 14:27:43;;;;;;;;;;;;;;;24.29;29.86;94673.72;4957623;29;1994;-49
2022/04/26 14:30:10;;;;;;;;;;;;;;;24.19;30.92;94681.81;4958019;29;1021;-49
2022/04/26 14:32:36;;;;;;;;;;;;;;;23.84;31.46;94674.88;4958996;28;1056;-50
2022/04/26 14:35:03;;;;;;;;;;;;;;;23.58;32.21;94681.91;4958925;29;1039;-50
2022/04/26 14:37:29;;;;;;;;;;;;;;;23.45;32.64;94676.84;4959081;28;1085;-50
2022/04/26 14:39:55;;;;;;;;;;;;;;;23.31;32.63;94670.94;4959012;28;996;-50
2022/04/26 14:42:21;;;;;;;;;;;;;;;23.24;33.15;94676.59;4959091;28;1007;-49
2022/04/26 14:44:48;;;;;;;;;;;;;;;23.19;34.18;94677.31;4958551;29;1013;-49
2022/04/26 14:47:14;;;;;;;;;;;;;;;23.13;34.21;94677.53;4958684;28;1984;-49
2022/04/26 14:49:40;;;;;;;;;;;;;;;23.06;34.12;94672.22;4958250;29;1029;-49
2022/04/26 14:52:07;;;;;;;;;;;;;;;23.03;33.54;94671.88;4957502;29;1035;-50
2022/04/26 14:54:34;;;;;;;;;;;;;;;22.95;33.42;94670.41;4958619;28;1084;-49
2022/04/26 14:57:00;;;;;;;;;;;;;;;22.97;34.04;94676.41;4958652;28;1876;-50
2022/04/26 14:59:26;;;;;;;;;;;;;;;22.95;34.60;94679.41;4958159;29;1010;-50
2022/04/26 15:01:52;;;;;;;;;;;;;;;23.02;34.43;94675.69;4958765;29;991;-49
2022/04/26 15:04:19;;;;;;;;;;;;;;;22.95;34.22;94671.22;4958274;28;1005;-50
2022/04/26 15:06:46;;;;;;;;;;;;;;;22.91;33.92;94677.44;4958405;28;1043;-50
2022/04/26 15:17:27;;;;;;;;;;;;;;;23.16;34.02;94685.19;4957887;29;908;-50
2022/04/26 15:19:53;;;;;;;;;;;;;;;23.12;33.63;94684.84;4958220;28;1053;-50
2022/04/26 15:22:19;;;;;;;;;;;;;;;23.04;33.61;94681.75;4958231;29;1030;-50
2022/04/26 15:24:49;;;;;;;;;;;;;;;22.98;33.61;94687.09;4956901;29;1025;-50
2022/04/26 15:27:15;;;;;;;;;;;;;;;22.95;33.58;94684.84;4976610;28;1915;-50
2022/04/26 15:29:42;;;;;;;;;;;;;;;22.91;34.44;94686.44;4977126;28;968;-50
2022/04/26 15:32:08;;;;;;;;;;;;;;;22.85;35.60;94697.50;4976899;28;1091;-50
2022/04/26 15:34:35;;;;;;;;;;;;;;;22.54;35.09;94697.84;4977214;28;959;-50
2022/04/26 15:37:01;;;;;;;;;;;;;;;22.38;35.38;94710.34;4977201;28;1076;-50
2022/04/26 15:39:28;;;;;;;;;;;;;;;22.11;36.58;94709.31;4976896;28;1111;-50
2022/04/26 15:41:55;;;;;;;;;;;;;;;22.05;36.55;94713.00;4977440;28;956;-50
2022/04/26 15:44:21;;;;;;;;;;;;;;;21.93;36.99;94726.63;4976720;28;1065;-50
2022/04/26 15:46:48;;;;;;;;;;;;;;;21.79;37.43;94728.81;4977022;28;1022;-50
2022/04/26 15:49:15;;;;;;;;;;;;;;;21.57;37.68;94723.19;4976903;28;1019;-50
2022/04/26 15:51:42;;;;;;;;;;;;;;;21.37;38.26;94723.56;4977195;28;1058;-50
2022/04/26 15:54:08;;;;;;;;;;;;;;;21.25;38.58;94729.03;4976893;28;1092;-49
2022/04/26 15:56:34;;;;;;;;;;;;;;;21.13;39.01;94726.31;4976659;28;1100;-50
2022/04/26 15:59:01;;;;;;;;;;;;;;;21.12;39.34;94738.25;4977034;28;1021;-50
2022/04/26 16:01:28;;;;;;;;;;;;;;;21.12;39.49;94748.31;4976483;28;1089;-50
2022/04/26 16:03:54;;;;;;;;;;;;;;;21.01;39.50;94741.81;4977039;28;1038;-50
2022/04/26 16:06:20;;;;;;;;;;;;;;;20.88;39.36;94734.69;4976578;28;965;-50
2022/04/26 16:08:47;;;;;;;;;;;;;;;20.80;40.38;94751.34;4976528;28;1950;-50
2022/04/26 16:22:11;;;;;;;;;;;;;;;20.52;42.69;94790.00;4976315;28;1061;-51
2022/04/26 16:24:40;;;;;;;;;;;;;;;20.53;41.96;94794.38;4976122;28;1030;-50
2022/04/26 16:27:07;;;;;;;;;;;;;;;20.48;42.53;94803.22;4958313;28;1985;-50
2022/04/26 16:29:33;;;;;;;;;;;;;;;20.39;42.15;94799.97;4956944;28;1042;-51
2022/04/26 16:31:59;;;;;;;;;;;;;;;20.39;42.35;94807.31;4957070;28;1039;-50
2022/04/26 16:34:25;;;;;;;;;;;;;;;20.21;43.37;94813.63;4956899;29;999;-50
2022/04/26 16:36:51;;;;;;;;;;;;;;;20.27;43.07;94821.66;4956822;29;985;-50
2022/04/26 16:39:18;;;;;;;;;;;;;;;20.12;44.01;94823.13;4956680;28;1032;-50
2022/04/26 16:41:44;;;;;;;;;;;;;;;19.99;43.48;94813.28;4956548;28;1052;-50
2022/04/26 16:44:10;;;;;;;;;;;;;;;19.89;42.56;94814.63;4955917;28;937;-50
2022/04/26 16:46:37;;;;;;;;;;;;;;;19.92;43.07;94821.50;4956510;28;968;-50
2022/04/26 16:49:03;;;;;;;;;;;;;;;19.87;43.66;94833.03;4956299;28;1989;-50
2022/04/26 16:51:30;;;;;;;;;;;;;;;19.74;44.41;94840.50;4956236;28;1029;-51
2022/04/26 16:53:57;;;;;;;;;;;;;;;19.77;43.87;94840.88;4956776;28;1041;-51
2022/04/26 16:56:23;;;;;;;;;;;;;;;19.75;43.50;94842.13;4956459;28;965;-49
2022/04/26 16:58:49;;;;;;;;;;;;;;;19.64;43.65;94852.66;4956374;28;1084;-50
2022/04/26 17:01:15;;;;;;;;;;;;;;;19.64;43.37;94863.50;4956410;29;1102;-50
2022/04/26 17:03:41;;;;;;;;;;;;;;;19.64;43.37;94863.50;4956315;28;982;-50
2022/04/26 17:06:08;;;;;;;;;;;;;;;19.60;43.95;94870.44;4955972;28;1079;-50
2022/04/26 17:08:34;;;;;;;;;;;;;;;19.56;44.23;94865.66;4956653;28;1992;-50
2022/04/26 17:13:45;;;;;;;;;;;;;;;19.45;43.86;94873.50;4956312;29;1038;-50
2022/04/26 17:16:12;;;;;;;;;;;;;;;19.33;43.76;94877.16;4955931;28;1003;-50
2022/04/26 17:18:40;;;;;;;;;;;;;;;19.30;43.98;94881.97;4955670;28;1060;-50
2022/04/26 17:21:06;;;;;;;;;;;;;;;19.26;44.45;94891.59;4956152;28;942;-51
2022/04/26 17:23:32;;;;;;;;;;;;;;;19.17;44.35;94890.22;4955825;29;1041;-51
2022/04/26 17:25:59;;;;;;;;;;;;;;;19.12;44.59;94895.44;4964062;28;1970;-51
2022/04/26 17:28:25;;;;;;;;;;;;;;;19.13;44.40;94893.59;4975033;28;1989;-50
2022/04/26 17:30:51;;;;;;;;;;;;;;;19.09;44.99;94894.03;4975002;28;1041;-50